Grand Canyon, AZ

12:53 AM MST on May 05, 2015 (GMT -0700)
KAZGRAND3 | | Change Station
CLOSE
Current Station
Personal Weather Station
Location: Grand Canyon, AZ
Elevation: 6991 ft
Nearby Weather Stations

Elev 6991 ft 36.05 °N, 112.12 °W | Updated 19 seconds ago

Mostly Cloudy
Mostly Cloudy
40.3 °F
Feels Like 40 °F
N
0.0
Wind Variable Wind from WSW
Gusts 0.0 mph

Today
High -- | Low -- °F
--% Chance of Precip.
Yesterday
High -- | Low -- °F
Precip. -- in
5:31 AM 7:19 PM
Full, 99% visible
Pressure 29.89 in
Visibility 10.0 miles
Clouds Mostly Cloudy 4200 ft
Windchill 40 °F
Dew Point 38 °F
Humidity 91%
Rainfall 0.00 in
Snow Depth Not available.
UV 0 out of 12
Pollen 5.50 out of 12
Air Quality Not available.
Flu Activity Local Activity
METAR KGCN 050654Z AUTO 00000KT 10SM BKN042 05/04 A3001 RMK AO2 SLP120 T00500039 401390000

More Conditions Fewer Conditions

Pressure 29.89 in
Visibility 10.0 miles
Clouds Mostly Cloudy 4200 ft
Windchill 40 °F
Dew Point 38 °F
Humidity 91%
Rainfall 0.00 in
Snow Depth Not available.
UV 0 out of 12
Pollen 5.50 out of 12
Air Quality Not available.
Flu Activity Local Activity
METAR KGCN 050654Z AUTO 00000KT 10SM BKN042 05/04 A3001 RMK AO2 SLP120 T00500039 401390000

More Conditions Fewer Conditions

Nepal has a long way to go to dig out and rebuild from a devastating earthquake. We have teamed up with several charities and organizations to make contributing to the relief effort as easy as possible.
How you can help: Portlight Strategies | Red Cross

10-Day Weather Forecast

Almanac

Astronomy

May. 05, 2015 Rise Set
Actual Time
Civil Twilight
Nautical Twilight
Astronomical Twilight
Moon
Length of Visible Light
Length of Day
Tomorrow will be .
, % of the Moon is Illuminated

Today's Extremes

State Highs State Lows

Community

WunderPhotos

Upload Photos

1,818,814 photos uploaded!

WunderBlogs® & News

Nearby

Air Quality

  Air Quality AQ Index Pollutant
Not available.

Snow Depth

Station Depth Elevation

Earthquake Activity

City Distance Mag. Time & Date
Minimum magnitude displayed is 2.5.

Coastal Water Temperatures

Place Temperature

Stations

Nearby Weather Stations

Station Location Temp. Windchill Dew Point Humidity Wind Precip. Elev Updated Type